createdAt,value
2019-05-29T00:00:43.757Z,0.40
2019-05-29T00:03:14.492Z,0.33
2019-05-29T00:05:44.390Z,0.50
2019-05-29T00:08:14.677Z,0.40
2019-05-29T00:10:44.609Z,1.27
2019-05-29T00:13:14.532Z,0.40
2019-05-29T00:15:44.312Z,0.50
2019-05-29T00:18:14.538Z,0.33
2019-05-29T00:20:44.437Z,0.57
2019-05-29T00:23:14.701Z,0.30
2019-05-29T00:25:44.657Z,0.60
2019-05-29T00:28:14.860Z,0.95
2019-05-29T00:30:44.706Z,0.40
2019-05-29T00:33:14.568Z,0.88
2019-05-29T00:35:44.390Z,0.35
2019-05-29T00:38:14.735Z,0.40
2019-05-29T00:40:44.544Z,0.30
2019-05-29T00:43:15.343Z,0.35
2019-05-29T00:45:45.372Z,0.55
2019-05-29T00:48:16.021Z,0.40
2019-05-29T00:50:45.996Z,0.40
2019-05-29T00:53:16.388Z,0.40
2019-05-29T00:55:46.203Z,0.42
2019-05-29T00:58:17.093Z,0.40
2019-05-29T01:00:47.008Z,0.40
2019-05-29T01:03:17.830Z,0.50
2019-05-29T01:05:47.719Z,0.60
2019-05-29T01:08:18.433Z,0.60
2019-05-29T01:10:48.228Z,0.82
2019-05-29T01:13:19.132Z,0.50
2019-05-29T01:15:49.412Z,0.47
2019-05-29T01:18:20.020Z,0.40
2019-05-29T01:20:49.815Z,0.37
2019-05-29T01:23:20.358Z,0.55
2019-05-29T01:25:50.142Z,0.40
2019-05-29T01:28:20.944Z,0.50
2019-05-29T01:30:51.591Z,0.60
2019-05-29T01:33:23.461Z,0.40
2019-05-29T01:35:53.621Z,0.40
2019-05-29T01:38:23.534Z,0.40
2019-05-29T01:40:53.422Z,0.50
2019-05-29T01:43:23.558Z,0.60
2019-05-29T01:45:53.452Z,0.65
2019-05-29T01:48:23.677Z,0.60
2019-05-29T01:50:53.558Z,0.40
2019-05-29T01:53:23.779Z,0.50
2019-05-29T01:55:53.534Z,0.40
2019-05-29T01:58:23.852Z,0.40
2019-05-29T02:00:53.646Z,0.60
2019-05-29T02:03:23.967Z,0.45
2019-05-29T02:05:53.761Z,0.60
2019-05-29T02:08:24.291Z,0.40
2019-05-29T02:10:54.121Z,0.40
2019-05-29T02:13:23.835Z,0.57
2019-05-29T02:15:53.552Z,0.50
2019-05-29T02:18:23.274Z,0.42
2019-05-29T02:20:52.977Z,0.68
2019-05-29T02:23:22.694Z,0.50
2019-05-29T02:25:52.431Z,0.50
2019-05-29T02:28:22.630Z,0.50
2019-05-29T02:30:52.450Z,0.50
2019-05-29T02:33:24.132Z,0.60
2019-05-29T02:35:53.598Z,0.75
2019-05-29T02:38:24.907Z,0.57
2019-05-29T02:40:54.787Z,0.82
2019-05-29T02:43:25.973Z,0.60
2019-05-29T02:45:55.990Z,0.50
2019-05-29T02:48:27.429Z,0.50
2019-05-29T02:50:57.139Z,0.57
2019-05-29T02:53:28.554Z,0.60
2019-05-29T02:55:58.465Z,0.57
2019-05-29T02:58:29.754Z,0.50
2019-05-29T03:00:59.702Z,0.68
2019-05-29T03:03:33.007Z,0.78
2019-05-29T03:06:01.227Z,0.60
2019-05-29T03:08:32.526Z,0.68
2019-05-29T03:11:02.370Z,0.50
2019-05-29T03:13:33.441Z,0.50
2019-05-29T03:16:11.573Z,0.72
2019-05-29T03:18:36.455Z,0.60
2019-05-29T03:21:06.196Z,0.80
2019-05-29T03:23:36.509Z,0.70
2019-05-29T03:26:06.527Z,0.65
2019-05-29T03:28:36.232Z,0.50
2019-05-29T03:31:06.035Z,0.50
2019-05-29T03:33:45.015Z,0.70
2019-05-29T03:36:07.189Z,0.40
2019-05-29T03:38:38.480Z,0.65
2019-05-29T03:41:08.422Z,0.70
2019-05-29T03:43:38.759Z,0.60
2019-05-29T03:46:28.736Z,0.80
2019-05-29T03:48:40.155Z,0.60
2019-05-29T03:51:09.887Z,0.60
2019-05-29T03:53:39.589Z,0.57
2019-05-29T03:56:09.321Z,0.50
2019-05-29T03:58:39.063Z,0.70
2019-05-29T04:01:08.797Z,0.60
2019-05-29T04:03:38.542Z,0.60
2019-05-29T04:06:08.292Z,0.60
2019-05-29T04:08:38.584Z,0.70
2019-05-29T04:11:08.809Z,0.85
2019-05-29T04:13:39.282Z,0.65
2019-05-29T04:16:10.142Z,0.62
2019-05-29T04:18:41.353Z,0.60
2019-05-29T04:21:11.693Z,0.60
2019-05-29T04:23:42.937Z,0.80
2019-05-29T04:26:16.021Z,0.72
2019-05-29T04:28:46.363Z,0.70
2019-05-29T04:31:16.103Z,0.90
2019-05-29T04:33:45.878Z,0.75
2019-05-29T04:36:15.611Z,0.90
2019-05-29T04:38:45.353Z,0.70
2019-05-29T04:41:15.127Z,0.75
2019-05-29T04:43:44.925Z,0.80
2019-05-29T04:46:14.632Z,0.85
2019-05-29T04:48:44.388Z,0.70
2019-05-29T04:51:14.150Z,0.80
2019-05-29T04:53:43.861Z,0.80
2019-05-29T04:56:13.573Z,0.70
2019-05-29T04:58:43.284Z,0.80
2019-05-29T05:01:12.992Z,0.70
2019-05-29T05:03:42.703Z,0.80
2019-05-29T05:06:12.419Z,0.78
2019-05-29T05:08:42.138Z,0.82
2019-05-29T05:11:12.214Z,0.75
2019-05-29T05:13:41.931Z,0.90
2019-05-29T05:16:11.721Z,0.70
2019-05-29T05:18:41.443Z,0.93
2019-05-29T05:21:11.136Z,0.75
2019-05-29T05:23:40.863Z,1.20
2019-05-29T05:26:10.589Z,0.80
2019-05-29T05:28:43.769Z,0.95
2019-05-29T05:31:11.736Z,0.90
2019-05-29T05:33:41.466Z,0.68
2019-05-29T05:36:11.249Z,0.90
2019-05-29T05:38:41.251Z,0.80
2019-05-29T05:41:11.149Z,0.68
2019-05-29T05:43:41.343Z,0.70
2019-05-29T05:46:11.425Z,0.50
2019-05-29T05:48:41.668Z,0.80
2019-05-29T05:51:11.475Z,0.60
2019-05-29T05:53:41.794Z,0.60
2019-05-29T05:56:11.792Z,0.98
2019-05-29T05:58:42.291Z,0.70
2019-05-29T06:01:12.202Z,0.53
2019-05-29T06:03:42.671Z,0.70
2019-05-29T06:06:12.631Z,0.60
2019-05-29T06:08:42.672Z,0.68
2019-05-29T06:11:13.403Z,0.80
2019-05-29T06:13:43.209Z,0.60
2019-05-29T06:16:12.949Z,1.05
2019-05-29T06:18:43.141Z,0.50
2019-05-29T06:21:13.068Z,1.30
2019-05-29T06:23:43.551Z,0.72
2019-05-29T06:26:14.651Z,0.68
2019-05-29T06:28:44.430Z,0.60
2019-05-29T06:31:14.178Z,0.40
2019-05-29T06:33:44.190Z,0.70
2019-05-29T06:36:14.117Z,0.50
2019-05-29T06:38:44.514Z,0.80
2019-05-29T06:41:14.528Z,0.42
2019-05-29T06:43:44.612Z,0.50
2019-05-29T06:46:14.477Z,0.50
2019-05-29T06:48:56.334Z,0.47
2019-05-29T06:51:15.615Z,0.50
2019-05-29T06:53:45.336Z,0.40
2019-05-29T06:56:16.076Z,0.50
2019-05-29T06:58:46.486Z,0.60
2019-05-29T07:01:16.221Z,0.50
2019-05-29T07:03:45.930Z,0.45
2019-05-29T07:06:15.727Z,0.50
2019-05-29T07:08:48.340Z,0.50
2019-05-29T07:11:16.909Z,0.53
2019-05-29T07:13:49.648Z,0.50
2019-05-29T07:16:18.061Z,0.42
2019-05-29T07:19:23.028Z,0.40
2019-05-29T07:21:19.425Z,0.50
2019-05-29T07:23:49.206Z,0.40
2019-05-29T07:26:18.951Z,0.50
2019-05-29T07:29:07.689Z,0.50
2019-05-29T07:31:20.189Z,0.57
2019-05-29T07:33:49.920Z,0.30
2019-05-29T07:36:19.723Z,0.40
2019-05-29T07:39:02.039Z,0.40
2019-05-29T07:41:20.865Z,0.53
2019-05-29T07:43:50.598Z,0.60
2019-05-29T07:46:20.313Z,0.50
2019-05-29T07:48:50.587Z,0.62
2019-05-29T07:51:20.444Z,0.30
2019-05-29T07:53:50.172Z,0.40
2019-05-29T07:56:22.992Z,0.40
2019-05-29T07:59:01.609Z,0.42
2019-05-29T08:01:23.985Z,0.40
2019-05-29T08:03:53.737Z,0.50
2019-05-29T08:06:23.535Z,0.72
2019-05-29T08:08:53.251Z,1.00
2019-05-29T08:11:22.965Z,0.40
2019-05-29T08:13:52.724Z,0.90
2019-05-29T08:16:22.438Z,0.45
2019-05-29T08:18:53.133Z,0.60
2019-05-29T08:21:23.117Z,0.40
2019-05-29T08:23:52.860Z,0.60
2019-05-29T08:26:22.569Z,0.50
2019-05-29T08:28:52.317Z,0.60
2019-05-29T08:31:22.030Z,0.40
2019-05-29T08:33:51.765Z,0.65
2019-05-29T08:36:21.499Z,0.93
2019-05-29T08:38:51.731Z,0.50
2019-05-29T08:41:21.736Z,0.80
2019-05-29T08:43:52.781Z,1.15
2019-05-29T08:46:22.669Z,0.40
2019-05-29T08:48:52.433Z,0.40
2019-05-29T08:51:22.198Z,0.50
2019-05-29T08:53:53.483Z,0.57
2019-05-29T08:56:23.378Z,0.50
2019-05-29T08:58:53.117Z,0.50
2019-05-29T09:01:22.860Z,0.40
2019-05-29T09:03:53.345Z,0.50
2019-05-29T09:06:23.407Z,0.40
2019-05-29T09:08:55.039Z,0.40
2019-05-29T09:11:24.673Z,0.30
2019-05-29T09:13:54.423Z,0.55
2019-05-29T09:16:24.193Z,0.40
2019-05-29T09:18:53.906Z,0.50
2019-05-29T09:21:26.605Z,0.50
2019-05-29T09:23:58.695Z,0.30
2019-05-29T09:26:27.787Z,0.30
2019-05-29T09:28:57.516Z,0.45
2019-05-29T09:31:27.475Z,0.60
2019-05-29T09:33:57.288Z,0.42
2019-05-29T09:36:27.001Z,0.40
2019-05-29T09:38:56.770Z,0.47
2019-05-29T09:41:26.547Z,0.37
2019-05-29T09:43:59.828Z,0.20
2019-05-29T09:46:27.677Z,0.35
2019-05-29T09:49:01.120Z,0.23
2019-05-29T09:51:28.809Z,0.40
2019-05-29T09:53:59.905Z,0.53
2019-05-29T09:56:29.962Z,0.60
2019-05-29T09:59:00.495Z,0.47
2019-05-29T10:01:31.081Z,0.40
2019-05-29T10:04:05.614Z,0.40
2019-05-29T10:06:33.720Z,0.40
2019-05-29T10:09:05.165Z,0.50
2019-05-29T10:11:34.906Z,0.30
2019-05-29T10:14:05.477Z,0.35
2019-05-29T10:16:36.147Z,0.50
2019-05-29T10:19:05.868Z,0.50
2019-05-29T10:21:40.614Z,0.40
2019-05-29T10:24:07.034Z,0.50
2019-05-29T10:26:36.741Z,0.45
2019-05-29T10:29:09.104Z,0.50
2019-05-29T10:31:37.879Z,0.40
2019-05-29T10:34:07.709Z,0.33
2019-05-29T10:36:37.457Z,0.40
2019-05-29T10:39:08.141Z,0.40
2019-05-29T10:41:37.876Z,0.37
2019-05-29T10:44:07.600Z,0.60
2019-05-29T10:46:37.328Z,0.50
2019-05-29T10:49:07.152Z,0.30
2019-05-29T10:51:36.862Z,0.57
2019-05-29T10:54:06.658Z,0.40
2019-05-29T10:56:36.370Z,0.20
2019-05-29T10:59:06.129Z,0.33
2019-05-29T11:01:35.916Z,0.40
2019-05-29T11:04:05.625Z,0.40
2019-05-29T11:06:35.375Z,0.30
2019-05-29T11:09:07.025Z,0.42
2019-05-29T11:11:36.767Z,0.40
2019-05-29T11:14:06.504Z,0.33
2019-05-29T11:16:39.728Z,0.40
2019-05-29T11:19:07.637Z,0.40
2019-05-29T11:21:37.417Z,0.20
2019-05-29T11:24:07.158Z,0.30
2019-05-29T11:26:36.854Z,0.30
2019-05-29T11:29:06.607Z,0.33
2019-05-29T11:31:36.369Z,0.30
2019-05-29T11:34:06.081Z,0.40
2019-05-29T11:36:35.821Z,0.30
2019-05-29T11:39:08.371Z,0.42
2019-05-29T11:41:38.173Z,0.35
2019-05-29T11:44:07.909Z,0.30
2019-05-29T11:46:37.649Z,0.40
2019-05-29T11:49:07.439Z,0.25
2019-05-29T11:51:37.188Z,0.40
2019-05-29T11:54:07.081Z,0.30
2019-05-29T11:56:36.853Z,0.40
2019-05-29T11:59:06.596Z,0.33
2019-05-29T12:01:49.741Z,0.30
2019-05-29T12:04:24.372Z,0.30
2019-05-29T12:06:39.206Z,0.33
2019-05-29T12:09:10.291Z,0.37
2019-05-29T12:11:40.061Z,0.37
2019-05-29T12:14:09.785Z,0.40
2019-05-29T12:16:39.497Z,0.20
2019-05-29T12:19:09.234Z,0.30
2019-05-29T12:21:42.583Z,0.20
2019-05-29T12:24:10.378Z,0.47
2019-05-29T12:26:40.087Z,0.30
2019-05-29T12:29:11.969Z,0.40
2019-05-29T12:31:41.360Z,0.30
2019-05-29T12:34:18.899Z,0.30
2019-05-29T12:36:42.527Z,0.28
2019-05-29T12:39:12.238Z,0.30
2019-05-29T12:41:41.996Z,0.20
2019-05-29T12:44:11.722Z,0.30
2019-05-29T12:46:41.505Z,0.68
2019-05-29T12:49:12.073Z,0.30
2019-05-29T12:51:41.829Z,0.30
2019-05-29T12:54:11.634Z,0.30
2019-05-29T12:56:41.346Z,0.30
2019-05-29T12:59:11.091Z,0.30
2019-05-29T13:01:40.821Z,0.33
2019-05-29T13:04:10.524Z,0.53
2019-05-29T13:06:40.264Z,0.40
2019-05-29T13:09:10.000Z,0.30
2019-05-29T13:11:39.719Z,0.40
2019-05-29T13:14:09.437Z,0.35
2019-05-29T13:16:39.218Z,0.30
2019-05-29T13:19:08.958Z,0.30
2019-05-29T13:21:38.694Z,0.50
2019-05-29T13:24:11.298Z,0.40
2019-05-29T13:26:39.871Z,0.47
2019-05-29T13:29:09.667Z,0.50
2019-05-29T13:31:39.541Z,0.47
2019-05-29T13:34:09.337Z,0.40
2019-05-29T13:36:39.086Z,0.40
2019-05-29T13:39:09.359Z,0.30
2019-05-29T13:41:39.077Z,0.45
2019-05-29T13:44:08.815Z,0.30
2019-05-29T13:46:38.530Z,0.37
2019-05-29T13:49:08.260Z,0.30
2019-05-29T13:51:38.010Z,0.30
2019-05-29T13:54:13.461Z,0.30
2019-05-29T13:56:39.142Z,0.40
2019-05-29T13:59:08.892Z,0.40
2019-05-29T14:01:38.606Z,0.40
2019-05-29T14:04:08.625Z,0.40
2019-05-29T14:06:38.620Z,0.40
2019-05-29T14:09:09.812Z,0.50
2019-05-29T14:11:39.987Z,0.30
2019-05-29T14:14:12.885Z,0.37
2019-05-29T14:16:41.164Z,0.30
2019-05-29T14:19:11.268Z,0.37
2019-05-29T14:21:41.285Z,0.40
2019-05-29T14:24:26.212Z,0.30
2019-05-29T14:26:42.436Z,0.40
2019-05-29T14:29:13.121Z,0.40
2019-05-29T14:31:42.861Z,0.33
2019-05-29T14:34:13.426Z,0.40
2019-05-29T14:36:43.302Z,0.40
2019-05-29T14:39:13.049Z,0.40
2019-05-29T14:41:42.786Z,0.50
2019-05-29T14:44:16.995Z,0.50
2019-05-29T14:46:44.853Z,0.50
2019-05-29T14:49:14.569Z,0.37
2019-05-29T14:51:44.326Z,0.50
2019-05-29T14:54:14.085Z,0.40
2019-05-29T14:56:43.932Z,0.30
2019-05-29T14:59:13.837Z,0.40
2019-05-29T15:01:43.641Z,0.50
2019-05-29T15:04:14.703Z,0.50
2019-05-29T15:06:46.565Z,0.45
2019-05-29T15:09:16.302Z,0.40
2019-05-29T15:11:46.029Z,0.45
2019-05-29T15:14:15.761Z,0.42
2019-05-29T15:16:45.477Z,0.35
2019-05-29T15:19:15.337Z,0.60
2019-05-29T15:21:45.115Z,0.40
2019-05-29T15:24:15.880Z,0.88
2019-05-29T15:26:45.870Z,0.40
2019-05-29T15:29:17.930Z,0.33
2019-05-29T15:31:47.033Z,0.50
2019-05-29T15:34:16.833Z,0.40
2019-05-29T15:36:46.550Z,0.40
2019-05-29T15:39:16.912Z,0.30
2019-05-29T15:41:46.748Z,0.40
2019-05-29T15:44:17.271Z,0.40
2019-05-29T15:46:47.152Z,0.35
2019-05-29T15:49:17.357Z,0.30
2019-05-29T15:51:47.225Z,0.30
2019-05-29T15:54:17.530Z,0.50
2019-05-29T15:56:47.368Z,0.70
2019-05-29T15:59:18.918Z,0.50
2019-05-29T16:01:48.511Z,0.40
2019-05-29T16:04:18.249Z,0.40
2019-05-29T16:06:47.956Z,0.53
2019-05-29T16:09:18.678Z,0.50
2019-05-29T16:11:48.603Z,0.50
2019-05-29T16:14:19.202Z,0.50
2019-05-29T16:16:49.120Z,0.45
2019-05-29T16:19:18.846Z,0.50
2019-05-29T16:21:48.562Z,0.40
2019-05-29T16:24:19.021Z,0.50
2019-05-29T16:26:48.984Z,0.50
2019-05-29T16:29:19.764Z,0.40
2019-05-29T16:31:49.596Z,0.90
2019-05-29T16:34:20.444Z,0.40
2019-05-29T16:36:50.753Z,0.40
2019-05-29T16:39:21.412Z,0.40
2019-05-29T16:41:51.886Z,0.50
2019-05-29T16:44:27.294Z,0.40
2019-05-29T16:46:53.056Z,0.50
2019-05-29T16:49:23.086Z,0.50
2019-05-29T16:51:52.957Z,0.70
2019-05-29T16:54:23.181Z,0.47
2019-05-29T16:56:53.254Z,0.50
2019-05-29T16:59:25.293Z,0.28
2019-05-29T17:01:54.393Z,0.50
2019-05-29T17:04:24.098Z,0.85
2019-05-29T17:06:53.806Z,0.30
2019-05-29T17:09:24.568Z,0.50
2019-05-29T17:11:54.446Z,0.57
2019-05-29T17:14:25.049Z,0.33
2019-05-29T17:16:54.912Z,0.30
2019-05-29T17:19:25.215Z,0.60
2019-05-29T17:21:55.324Z,0.40
2019-05-29T17:24:25.191Z,0.40
2019-05-29T17:26:54.942Z,0.40
2019-05-29T17:29:25.080Z,0.40
2019-05-29T17:31:54.973Z,0.40
2019-05-29T17:34:25.284Z,0.50
2019-05-29T17:36:55.199Z,0.50
2019-05-29T17:39:25.167Z,0.50
2019-05-29T17:41:55.021Z,0.82
2019-05-29T17:44:25.703Z,0.53
2019-05-29T17:46:55.657Z,0.30
2019-05-29T17:49:32.975Z,0.62
2019-05-29T17:51:56.845Z,0.53
2019-05-29T17:54:26.671Z,0.50
2019-05-29T17:56:58.616Z,0.47
2019-05-29T17:59:29.067Z,0.40
2019-05-29T18:01:58.801Z,0.30
2019-05-29T18:04:28.513Z,0.45
2019-05-29T18:06:58.246Z,0.50
2019-05-29T18:09:29.314Z,0.40
2019-05-29T18:11:59.185Z,0.88
2019-05-29T18:14:28.907Z,0.30
2019-05-29T18:16:58.617Z,0.50
2019-05-29T18:19:28.386Z,0.42
2019-05-29T18:21:58.498Z,0.50
2019-05-29T18:24:28.315Z,0.40
2019-05-29T18:26:59.163Z,0.47
2019-05-29T18:29:29.773Z,0.50
2019-05-29T18:31:59.637Z,0.47
2019-05-29T18:34:29.807Z,0.40
2019-05-29T18:36:59.641Z,0.70
2019-05-29T18:39:29.402Z,0.53
2019-05-29T18:41:59.148Z,0.50
2019-05-29T18:44:29.046Z,0.70
2019-05-29T18:46:58.882Z,0.60
2019-05-29T18:49:28.760Z,0.60
2019-05-29T18:52:00.462Z,0.57
2019-05-29T18:54:30.186Z,0.60
2019-05-29T18:57:14.397Z,0.40
2019-05-29T18:59:31.820Z,0.60
2019-05-29T19:02:01.643Z,0.60
2019-05-29T19:04:31.977Z,0.50
2019-05-29T19:07:01.893Z,0.53
2019-05-29T19:09:31.967Z,0.60
2019-05-29T19:12:01.934Z,0.60
2019-05-29T19:14:32.565Z,0.70
2019-05-29T19:17:02.443Z,0.60
2019-05-29T19:19:32.499Z,0.65
2019-05-29T19:22:02.478Z,0.70
2019-05-29T19:24:34.096Z,0.68
2019-05-29T19:27:03.885Z,0.88
2019-05-29T19:29:33.602Z,0.68
2019-05-29T19:32:03.315Z,0.88
2019-05-29T19:34:33.649Z,1.00
2019-05-29T19:37:03.852Z,0.85
2019-05-29T19:39:34.172Z,1.10
2019-05-29T19:42:04.253Z,0.95
2019-05-29T19:44:34.621Z,0.82
2019-05-29T19:47:04.619Z,1.02
2019-05-29T19:49:35.319Z,0.90
2019-05-29T19:52:05.254Z,1.15
2019-05-29T19:54:35.730Z,1.50
2019-05-29T19:57:05.567Z,1.10
2019-05-29T19:59:36.309Z,1.20
2019-05-29T20:02:06.318Z,1.20
2019-05-29T20:04:36.925Z,1.00
2019-05-29T20:07:06.812Z,1.30
2019-05-29T20:09:37.612Z,1.20
2019-05-29T20:12:07.577Z,1.30
2019-05-29T20:14:38.115Z,1.40
2019-05-29T20:17:08.354Z,1.55
2019-05-29T20:19:40.839Z,1.12
2019-05-29T20:22:09.477Z,1.40
2019-05-29T20:24:39.205Z,1.57
2019-05-29T20:27:08.938Z,1.25
2019-05-29T20:29:38.662Z,1.52
2019-05-29T20:32:08.466Z,1.60
2019-05-29T20:34:39.005Z,1.50
2019-05-29T20:37:08.852Z,1.80
2019-05-29T20:39:38.614Z,1.82
2019-05-29T20:42:08.373Z,1.85
2019-05-29T20:44:38.710Z,1.70
2019-05-29T20:49:40.184Z,1.90
2019-05-29T20:52:09.904Z,1.75
2019-05-29T20:54:39.790Z,1.80
2019-05-29T20:57:12.448Z,1.95
2019-05-29T20:59:42.290Z,2.05
2019-05-29T21:02:12.289Z,2.00
2019-05-29T21:04:42.805Z,1.75
2019-05-29T21:07:12.690Z,2.00
2019-05-29T21:09:43.305Z,1.92
2019-05-29T21:12:13.205Z,2.20
2019-05-29T21:14:44.600Z,2.10
2019-05-29T21:17:14.491Z,2.22
2019-05-29T21:19:44.699Z,2.15
2019-05-29T21:22:14.601Z,2.00
2019-05-29T21:24:55.281Z,1.87
2019-05-29T21:27:15.864Z,1.57
2019-05-29T21:29:45.674Z,1.57
2019-05-29T21:32:15.402Z,1.72
2019-05-29T21:34:46.207Z,2.10
2019-05-29T21:37:16.051Z,1.62
2019-05-29T21:39:46.675Z,1.70
2019-05-29T21:42:16.580Z,1.65
2019-05-29T21:44:47.097Z,1.87
2019-05-29T21:47:17.035Z,1.90
2019-05-29T21:49:47.491Z,1.90
2019-05-29T21:52:17.325Z,1.87
2019-05-29T21:54:47.676Z,1.95
2019-05-29T21:57:17.560Z,2.12
2019-05-29T21:59:48.083Z,1.92
2019-05-29T22:02:18.020Z,1.60
2019-05-29T22:04:48.688Z,1.80
2019-05-29T22:07:18.542Z,1.98
2019-05-29T22:09:48.319Z,2.10
2019-05-29T22:12:18.024Z,1.57
2019-05-29T22:14:47.814Z,1.72
2019-05-29T22:17:17.528Z,1.80
2019-05-29T22:19:47.246Z,1.67
2019-05-29T22:22:16.977Z,1.70
2019-05-29T22:24:46.709Z,1.70
2019-05-29T22:27:16.424Z,1.67
2019-05-29T22:29:46.150Z,1.82
2019-05-29T22:32:15.857Z,1.70
2019-05-29T22:34:45.582Z,1.50
2019-05-29T22:37:15.294Z,2.10
2019-05-29T22:39:45.016Z,1.37
2019-05-29T22:42:14.729Z,1.62
2019-05-29T22:44:44.443Z,1.40
2019-05-29T22:47:14.163Z,1.40
2019-05-29T22:49:43.872Z,1.30
2019-05-29T22:52:13.585Z,1.20
2019-05-29T22:54:43.335Z,1.55
2019-05-29T22:57:13.063Z,1.17
2019-05-29T22:59:42.772Z,2.60
2019-05-29T23:02:12.620Z,1.20
2019-05-29T23:04:42.326Z,1.12
2019-05-29T23:07:12.062Z,1.07
2019-05-29T23:09:41.776Z,1.20
2019-05-29T23:12:11.616Z,1.10
2019-05-29T23:14:41.408Z,1.15
2019-05-29T23:17:11.105Z,1.10
2019-05-29T23:19:40.862Z,1.00
2019-05-29T23:22:10.641Z,1.40
2019-05-29T23:24:40.367Z,1.25
2019-05-29T23:27:10.072Z,1.20
2019-05-29T23:29:48.865Z,2.08
2019-05-29T23:32:11.226Z,1.40
2019-05-29T23:34:40.937Z,1.30
2019-05-29T23:37:13.712Z,1.17
2019-05-29T23:39:42.088Z,1.25
2019-05-29T23:42:11.826Z,1.30
2019-05-29T23:44:41.561Z,1.35
2019-05-29T23:47:11.273Z,1.30
2019-05-29T23:49:41.023Z,1.02
2019-05-29T23:52:10.774Z,1.30
2019-05-29T23:54:40.489Z,1.40
2019-05-29T23:57:10.205Z,1.15
2019-05-29T23:59:39.936Z,1.17
